DAL134 KSNA-KSFO
Flight info
| Callsign | DAL134 |
|---|---|
| Flight time | 0h 58m |
| Altitude | 38000 |
| Route | HHERO3 IKAYE RIZIN SPLNT STOKD SERFR SERFR4 |
| Aircraft | B752/M-SDE3FGHIM3RWXY/LB1 |
Departure
| Time | 2026-05-07 18:47 |
|---|---|
| Airport | John Wayne Orange County International Airport (KSNA) |
Arrival
| Time | 2026-05-07 19:46 |
|---|---|
| Airport | San Francisco International Airport (KSFO) |
| Time | Latitude | Longitude | Altitude | Speed | Heading |
|---|---|---|---|---|---|
| 2026-05-07 18:25 | 33.68008 | -117.86192 | 51 ft | 0 kts | 105° |
| 2026-05-07 18:37 | 33.68012 | -117.86205 | 52 ft | 2 kts | 121° |
| 2026-05-07 18:37 | 33.68021 | -117.86219 | 52 ft | 2 kts | 137° |
| 2026-05-07 18:38 | 33.68033 | -117.86230 | 52 ft | 2 kts | 155° |
| 2026-05-07 18:38 | 33.68048 | -117.86235 | 52 ft | 2 kts | 173° |
| 2026-05-07 18:38 | 33.68063 | -117.86234 | 52 ft | 2 kts | 191° |
| 2026-05-07 18:38 | 33.68077 | -117.86229 | 52 ft | 2 kts | 208° |
| 2026-05-07 18:39 | 33.68090 | -117.86219 | 51 ft | 2 kts | 210° |
| 2026-05-07 18:39 | 33.68104 | -117.86211 | 51 ft | 2 kts | 209° |
| 2026-05-07 18:39 | 33.68108 | -117.86208 | 51 ft | 0 kts | 210° |
| 2026-05-07 18:45 | 33.68097 | -117.86215 | 51 ft | 4 kts | 210° |
| 2026-05-07 18:45 | 33.68064 | -117.86238 | 51 ft | 6 kts | 210° |
| 2026-05-07 18:45 | 33.68051 | -117.86272 | 52 ft | 5 kts | 287° |
| 2026-05-07 18:45 | 33.68074 | -117.86326 | 52 ft | 9 kts | 297° |
| 2026-05-07 18:46 | 33.68109 | -117.86406 | 52 ft | 11 kts | 298° |
| 2026-05-07 18:46 | 33.68150 | -117.86493 | 52 ft | 9 kts | 300° |
| 2026-05-07 18:46 | 33.68153 | -117.86517 | 52 ft | 2 kts | 232° |
| 2026-05-07 18:46 | 33.68147 | -117.86522 | 52 ft | 0 kts | 207° |
| 2026-05-07 18:47 | 33.68139 | -117.86527 | 52 ft | 14 kts | 207° |
| 2026-05-07 18:47 | 33.67824 | -117.86726 | 56 ft | 87 kts | 208° |
| 2026-05-07 18:47 | 33.67075 | -117.87196 | 128 ft | 144 kts | 207° |
| 2026-05-07 18:47 | 33.66161 | -117.87776 | 781 ft | 153 kts | 208° |
| 2026-05-07 18:48 | 33.65220 | -117.88374 | 1423 ft | 158 kts | 207° |
| 2026-05-07 18:48 | 33.64148 | -117.88916 | 1696 ft | 175 kts | 191° |
| 2026-05-07 18:48 | 33.62876 | -117.89119 | 2006 ft | 191 kts | 187° |
| 2026-05-07 18:48 | 33.61461 | -117.89331 | 2327 ft | 223 kts | 187° |
| 2026-05-07 18:49 | 33.59837 | -117.89560 | 2995 ft | 245 kts | 187° |
| 2026-05-07 18:49 | 33.58072 | -117.89839 | 3754 ft | 265 kts | 195° |
| 2026-05-07 18:49 | 33.56407 | -117.90877 | 4751 ft | 275 kts | 221° |
| 2026-05-07 18:49 | 33.54952 | -117.92463 | 4971 ft | 289 kts | 224° |
| 2026-05-07 18:50 | 33.53481 | -117.94099 | 4949 ft | 276 kts | 224° |
| 2026-05-07 18:50 | 33.52103 | -117.95640 | 4933 ft | 268 kts | 224° |
| 2026-05-07 18:50 | 33.50721 | -117.97193 | 5051 ft | 276 kts | 224° |
| 2026-05-07 18:50 | 33.49326 | -117.98763 | 6101 ft | 281 kts | 224° |
| 2026-05-07 18:51 | 33.47983 | -118.00468 | 7282 ft | 287 kts | 237° |
| 2026-05-07 18:51 | 33.46945 | -118.02530 | 8382 ft | 294 kts | 240° |
| 2026-05-07 18:51 | 33.45902 | -118.04627 | 9471 ft | 303 kts | 239° |
| 2026-05-07 18:51 | 33.44812 | -118.06826 | 10569 ft | 312 kts | 240° |
| 2026-05-07 18:52 | 33.43658 | -118.09164 | 10940 ft | 347 kts | 240° |
| 2026-05-07 18:52 | 33.42435 | -118.11767 | 11751 ft | 366 kts | 247° |
| 2026-05-07 18:52 | 33.41728 | -118.14690 | 13251 ft | 367 kts | 264° |
| 2026-05-07 18:52 | 33.41723 | -118.17740 | 14429 ft | 372 kts | 281° |
| 2026-05-07 18:53 | 33.42236 | -118.20747 | 15685 ft | 377 kts | 285° |
| 2026-05-07 18:53 | 33.42791 | -118.23789 | 16866 ft | 383 kts | 285° |
| 2026-05-07 18:53 | 33.43380 | -118.26931 | 18017 ft | 389 kts | 285° |
| 2026-05-07 18:53 | 33.44098 | -118.30035 | 19143 ft | 391 kts | 295° |
| 2026-05-07 18:54 | 33.45301 | -118.32974 | 20265 ft | 393 kts | 301° |
| 2026-05-07 18:54 | 33.46549 | -118.35867 | 21317 ft | 398 kts | 300° |
| 2026-05-07 18:54 | 33.47844 | -118.38866 | 22344 ft | 404 kts | 300° |
| 2026-05-07 18:54 | 33.49141 | -118.41854 | 23335 ft | 408 kts | 300° |
| 2026-05-07 18:55 | 33.50451 | -118.44872 | 24273 ft | 413 kts | 300° |
| 2026-05-07 18:55 | 33.51805 | -118.47911 | 25208 ft | 416 kts | 304° |
| 2026-05-07 18:55 | 33.53479 | -118.50777 | 26044 ft | 419 kts | 310° |
| 2026-05-07 18:55 | 33.55252 | -118.53552 | 26888 ft | 423 kts | 310° |
| 2026-05-07 18:56 | 33.57058 | -118.56390 | 27681 ft | 428 kts | 310° |
| 2026-05-07 18:56 | 33.58873 | -118.59232 | 28447 ft | 432 kts | 310° |
| 2026-05-07 18:56 | 33.60688 | -118.62070 | 29152 ft | 437 kts | 310° |
| 2026-05-07 18:56 | 33.62548 | -118.64977 | 29871 ft | 440 kts | 310° |
| 2026-05-07 18:57 | 33.64445 | -118.67899 | 30544 ft | 443 kts | 313° |
| 2026-05-07 18:57 | 33.66587 | -118.70476 | 31231 ft | 440 kts | 323° |
| 2026-05-07 18:57 | 33.69088 | -118.72572 | 32095 ft | 432 kts | 332° |
| 2026-05-07 18:57 | 33.71688 | -118.74271 | 32902 ft | 427 kts | 333° |
| 2026-05-07 18:58 | 33.74311 | -118.75957 | 33513 ft | 426 kts | 334° |
| 2026-05-07 18:58 | 33.76917 | -118.77612 | 34226 ft | 422 kts | 334° |
| 2026-05-07 18:58 | 33.79546 | -118.79269 | 34804 ft | 420 kts | 334° |
| 2026-05-07 18:58 | 33.82144 | -118.80898 | 35478 ft | 416 kts | 334° |
| 2026-05-07 18:59 | 33.84689 | -118.82491 | 35975 ft | 415 kts | 334° |
| 2026-05-07 18:59 | 33.87274 | -118.84106 | 36528 ft | 411 kts | 334° |
| 2026-05-07 18:59 | 33.89830 | -118.85701 | 36838 ft | 413 kts | 334° |
| 2026-05-07 18:59 | 33.92411 | -118.87313 | 37215 ft | 412 kts | 334° |
| 2026-05-07 19:00 | 33.94926 | -118.88883 | 37612 ft | 410 kts | 334° |
| 2026-05-07 19:00 | 33.97484 | -118.90482 | 38020 ft | 406 kts | 334° |
| 2026-05-07 19:00 | 33.99994 | -118.92050 | 38051 ft | 405 kts | 334° |
| 2026-05-07 19:01 | 34.04983 | -118.95171 | 38054 ft | 405 kts | 334° |
| 2026-05-07 19:01 | 34.10009 | -118.98319 | 38059 ft | 405 kts | 334° |
| 2026-05-07 19:02 | 34.14542 | -119.02388 | 38081 ft | 410 kts | 314° |
| 2026-05-07 19:02 | 34.17866 | -119.08086 | 38068 ft | 415 kts | 306° |
| 2026-05-07 19:03 | 34.20987 | -119.14015 | 38071 ft | 416 kts | 305° |
| 2026-05-07 19:03 | 34.24062 | -119.19945 | 38066 ft | 416 kts | 305° |
| 2026-05-07 19:04 | 34.27130 | -119.25898 | 38074 ft | 416 kts | 305° |
| 2026-05-07 19:04 | 34.30186 | -119.31850 | 38073 ft | 416 kts | 305° |
| 2026-05-07 19:05 | 34.33247 | -119.37824 | 38068 ft | 417 kts | 305° |
| 2026-05-07 19:05 | 34.36305 | -119.43805 | 38076 ft | 416 kts | 305° |
| 2026-05-07 19:06 | 34.39355 | -119.49779 | 38082 ft | 417 kts | 305° |
| 2026-05-07 19:06 | 34.42878 | -119.55306 | 38106 ft | 412 kts | 317° |
| 2026-05-07 19:06 | 34.44898 | -119.57809 | 38095 ft | 412 kts | 316° |
| 2026-05-07 19:07 | 34.48904 | -119.62778 | 38105 ft | 413 kts | 317° |
| 2026-05-07 19:07 | 34.52947 | -119.67770 | 38111 ft | 413 kts | 316° |
| 2026-05-07 19:08 | 34.56975 | -119.72742 | 38125 ft | 413 kts | 316° |
| 2026-05-07 19:08 | 34.61018 | -119.77737 | 38121 ft | 413 kts | 316° |
| 2026-05-07 19:09 | 34.65073 | -119.82752 | 38118 ft | 414 kts | 316° |
| 2026-05-07 19:09 | 34.69156 | -119.87807 | 38118 ft | 424 kts | 316° |
| 2026-05-07 19:10 | 34.73358 | -119.93017 | 38128 ft | 435 kts | 316° |
| 2026-05-07 19:10 | 34.77655 | -119.98354 | 38130 ft | 444 kts | 316° |
| 2026-05-07 19:11 | 34.81990 | -120.03747 | 38150 ft | 446 kts | 316° |
| 2026-05-07 19:11 | 34.86335 | -120.09164 | 38143 ft | 445 kts | 316° |
| 2026-05-07 19:12 | 34.90651 | -120.14552 | 38125 ft | 445 kts | 316° |
| 2026-05-07 19:12 | 34.95004 | -120.19992 | 38116 ft | 445 kts | 316° |
| 2026-05-07 19:13 | 34.99316 | -120.25393 | 38103 ft | 445 kts | 316° |
| 2026-05-07 19:13 | 35.03642 | -120.30818 | 38077 ft | 446 kts | 316° |
| 2026-05-07 19:14 | 35.07978 | -120.36266 | 38075 ft | 446 kts | 316° |
| 2026-05-07 19:14 | 35.12496 | -120.41441 | 38072 ft | 446 kts | 319° |
| 2026-05-07 19:15 | 35.17093 | -120.46581 | 38079 ft | 446 kts | 319° |
| 2026-05-07 19:15 | 35.21672 | -120.51713 | 38079 ft | 446 kts | 319° |
| 2026-05-07 19:16 | 35.26259 | -120.56865 | 38078 ft | 446 kts | 319° |
| 2026-05-07 19:16 | 35.30838 | -120.62018 | 38080 ft | 447 kts | 319° |
| 2026-05-07 19:17 | 35.35439 | -120.67203 | 38082 ft | 446 kts | 318° |
| 2026-05-07 19:17 | 35.39994 | -120.72345 | 38090 ft | 446 kts | 318° |
| 2026-05-07 19:18 | 35.44589 | -120.77541 | 38091 ft | 447 kts | 318° |
| 2026-05-07 19:18 | 35.49230 | -120.82590 | 38094 ft | 446 kts | 323° |
| 2026-05-07 19:19 | 35.54203 | -120.87207 | 38086 ft | 447 kts | 323° |
| 2026-05-07 19:19 | 35.59206 | -120.91861 | 38081 ft | 446 kts | 323° |
| 2026-05-07 19:20 | 35.64179 | -120.96487 | 38080 ft | 446 kts | 323° |
| 2026-05-07 19:20 | 35.69113 | -121.01083 | 38078 ft | 446 kts | 323° |
| 2026-05-07 19:21 | 35.74102 | -121.05736 | 38096 ft | 447 kts | 323° |
| 2026-05-07 19:21 | 35.76570 | -121.08040 | 37903 ft | 452 kts | 323° |
| 2026-05-07 19:21 | 35.79135 | -121.10436 | 37200 ft | 458 kts | 323° |
| 2026-05-07 19:22 | 35.81670 | -121.12807 | 36508 ft | 455 kts | 323° |
| 2026-05-07 19:22 | 35.84172 | -121.15150 | 35868 ft | 450 kts | 323° |
| 2026-05-07 19:22 | 35.86674 | -121.17493 | 35289 ft | 450 kts | 323° |
| 2026-05-07 19:22 | 35.89148 | -121.19813 | 34742 ft | 454 kts | 323° |
| 2026-05-07 19:23 | 35.91708 | -121.22214 | 34206 ft | 459 kts | 323° |
| 2026-05-07 19:23 | 35.94257 | -121.24608 | 33612 ft | 462 kts | 324° |
| 2026-05-07 19:23 | 35.96836 | -121.27032 | 33011 ft | 465 kts | 324° |
| 2026-05-07 19:23 | 35.99415 | -121.29456 | 32294 ft | 470 kts | 324° |
| 2026-05-07 19:24 | 36.02022 | -121.31911 | 31538 ft | 473 kts | 324° |
| 2026-05-07 19:24 | 36.04644 | -121.34380 | 30983 ft | 470 kts | 323° |
| 2026-05-07 19:24 | 36.10001 | -121.38989 | 30610 ft | 473 kts | 329° |
| 2026-05-07 19:25 | 36.12730 | -121.41084 | 30287 ft | 442 kts | 329° |
| 2026-05-07 19:25 | 36.15251 | -121.43037 | 29515 ft | 425 kts | 329° |
| 2026-05-07 19:25 | 36.17765 | -121.44989 | 28787 ft | 421 kts | 329° |
| 2026-05-07 19:25 | 36.20221 | -121.46902 | 28202 ft | 417 kts | 329° |
| 2026-05-07 19:26 | 36.22670 | -121.48813 | 27635 ft | 413 kts | 329° |
| 2026-05-07 19:26 | 36.25095 | -121.50709 | 27085 ft | 408 kts | 329° |
| 2026-05-07 19:26 | 36.27477 | -121.52573 | 26552 ft | 400 kts | 329° |
| 2026-05-07 19:26 | 36.29809 | -121.54399 | 26037 ft | 395 kts | 329° |
| 2026-05-07 19:27 | 36.32157 | -121.56239 | 25530 ft | 396 kts | 329° |
| 2026-05-07 19:27 | 36.34472 | -121.58056 | 25034 ft | 397 kts | 329° |
| 2026-05-07 19:27 | 36.36835 | -121.59911 | 24526 ft | 395 kts | 329° |
| 2026-05-07 19:27 | 36.39135 | -121.61718 | 24031 ft | 391 kts | 329° |
| 2026-05-07 19:28 | 36.41431 | -121.63524 | 23551 ft | 387 kts | 329° |
| 2026-05-07 19:28 | 36.43696 | -121.65306 | 23077 ft | 384 kts | 328° |
| 2026-05-07 19:28 | 36.45958 | -121.67088 | 22601 ft | 382 kts | 328° |
| 2026-05-07 19:28 | 36.48212 | -121.68864 | 22121 ft | 381 kts | 328° |
| 2026-05-07 19:29 | 36.50447 | -121.70628 | 21654 ft | 378 kts | 328° |
| 2026-05-07 19:29 | 36.52653 | -121.72369 | 21186 ft | 375 kts | 328° |
| 2026-05-07 19:29 | 36.54860 | -121.74113 | 20716 ft | 372 kts | 328° |
| 2026-05-07 19:29 | 36.57035 | -121.75833 | 20253 ft | 369 kts | 328° |
| 2026-05-07 19:30 | 36.59203 | -121.77549 | 19791 ft | 367 kts | 328° |
| 2026-05-07 19:30 | 36.61373 | -121.79266 | 19325 ft | 365 kts | 328° |
| 2026-05-07 19:30 | 36.63527 | -121.80974 | 18861 ft | 363 kts | 328° |
| 2026-05-07 19:30 | 36.65652 | -121.82658 | 18407 ft | 361 kts | 328° |
| 2026-05-07 19:31 | 36.67777 | -121.84345 | 17949 ft | 358 kts | 328° |
| 2026-05-07 19:31 | 36.69870 | -121.86007 | 17501 ft | 356 kts | 328° |
| 2026-05-07 19:31 | 36.71981 | -121.87684 | 17036 ft | 354 kts | 328° |
| 2026-05-07 19:31 | 36.74123 | -121.89171 | 16597 ft | 351 kts | 339° |
| 2026-05-07 19:32 | 36.76467 | -121.90002 | 16139 ft | 349 kts | 347° |
| 2026-05-07 19:32 | 36.78860 | -121.90688 | 15641 ft | 349 kts | 347° |
| 2026-05-07 19:32 | 36.81210 | -121.91363 | 15163 ft | 346 kts | 347° |
| 2026-05-07 19:32 | 36.83559 | -121.92028 | 14694 ft | 342 kts | 347° |
| 2026-05-07 19:33 | 36.85881 | -121.92682 | 14245 ft | 339 kts | 347° |
| 2026-05-07 19:33 | 36.88184 | -121.93329 | 13808 ft | 338 kts | 347° |
| 2026-05-07 19:33 | 36.90489 | -121.93975 | 13345 ft | 338 kts | 347° |
| 2026-05-07 19:33 | 36.92793 | -121.94621 | 12934 ft | 337 kts | 347° |
| 2026-05-07 19:34 | 36.95079 | -121.95269 | 12550 ft | 334 kts | 345° |
| 2026-05-07 19:34 | 36.97293 | -121.96095 | 12156 ft | 332 kts | 341° |
| 2026-05-07 19:34 | 36.99515 | -121.96976 | 11767 ft | 332 kts | 342° |
| 2026-05-07 19:34 | 37.01730 | -121.97844 | 11345 ft | 330 kts | 342° |
| 2026-05-07 19:35 | 37.03934 | -121.98707 | 10975 ft | 329 kts | 342° |
| 2026-05-07 19:35 | 37.06135 | -121.99567 | 10605 ft | 327 kts | 342° |
| 2026-05-07 19:35 | 37.08319 | -122.00420 | 10229 ft | 326 kts | 342° |
| 2026-05-07 19:35 | 37.10486 | -122.01266 | 9858 ft | 325 kts | 342° |
| 2026-05-07 19:36 | 37.12632 | -122.02106 | 9453 ft | 323 kts | 342° |
| 2026-05-07 19:36 | 37.14790 | -122.02950 | 9056 ft | 320 kts | 342° |
| 2026-05-07 19:36 | 37.16924 | -122.03785 | 8679 ft | 316 kts | 342° |
| 2026-05-07 19:36 | 37.19002 | -122.04600 | 8332 ft | 312 kts | 341° |
| 2026-05-07 19:37 | 37.21074 | -122.05411 | 7980 ft | 308 kts | 341° |
| 2026-05-07 19:37 | 37.23093 | -122.06202 | 7942 ft | 300 kts | 341° |
| 2026-05-07 19:37 | 37.25130 | -122.07002 | 7953 ft | 309 kts | 341° |
| 2026-05-07 19:37 | 37.27201 | -122.07815 | 7952 ft | 311 kts | 341° |
| 2026-05-07 19:38 | 37.29301 | -122.08641 | 7682 ft | 317 kts | 341° |
| 2026-05-07 19:38 | 37.31368 | -122.09454 | 7113 ft | 300 kts | 341° |
| 2026-05-07 19:38 | 37.33309 | -122.10218 | 6603 ft | 281 kts | 341° |
| 2026-05-07 19:38 | 37.35120 | -122.10932 | 6207 ft | 265 kts | 341° |
| 2026-05-07 19:39 | 37.36848 | -122.11614 | 6162 ft | 255 kts | 341° |
| 2026-05-07 19:39 | 37.38576 | -122.12246 | 6108 ft | 259 kts | 343° |
| 2026-05-07 19:39 | 37.40336 | -122.12845 | 6032 ft | 257 kts | 343° |
| 2026-05-07 19:39 | 37.42018 | -122.13422 | 5914 ft | 250 kts | 343° |
| 2026-05-07 19:40 | 37.43734 | -122.14011 | 5493 ft | 254 kts | 343° |
| 2026-05-07 19:40 | 37.45443 | -122.14594 | 5075 ft | 256 kts | 344° |
| 2026-05-07 19:40 | 37.47204 | -122.15174 | 4650 ft | 258 kts | 344° |
| 2026-05-07 19:40 | 37.48959 | -122.15754 | 4226 ft | 259 kts | 344° |
| 2026-05-07 19:41 | 37.50664 | -122.16316 | 3692 ft | 250 kts | 344° |
| 2026-05-07 19:41 | 37.52320 | -122.16888 | 3206 ft | 239 kts | 337° |
| 2026-05-07 19:41 | 37.53700 | -122.17917 | 2762 ft | 228 kts | 310° |
| 2026-05-07 19:41 | 37.54502 | -122.19568 | 2647 ft | 217 kts | 297° |
| 2026-05-07 19:42 | 37.55213 | -122.21243 | 2353 ft | 210 kts | 298° |
| 2026-05-07 19:42 | 37.55884 | -122.22800 | 2139 ft | 196 kts | 298° |
| 2026-05-07 19:42 | 37.56516 | -122.24284 | 1951 ft | 183 kts | 298° |
| 2026-05-07 19:42 | 37.57095 | -122.25647 | 1778 ft | 171 kts | 298° |
| 2026-05-07 19:43 | 37.57633 | -122.26918 | 1576 ft | 152 kts | 298° |
| 2026-05-07 19:43 | 37.58095 | -122.28016 | 1424 ft | 134 kts | 299° |
| 2026-05-07 19:43 | 37.58516 | -122.29015 | 1235 ft | 123 kts | 300° |
| 2026-05-07 19:43 | 37.58924 | -122.29974 | 1078 ft | 127 kts | 299° |
| 2026-05-07 19:44 | 37.59352 | -122.30983 | 903 ft | 128 kts | 299° |
| 2026-05-07 19:44 | 37.59768 | -122.31966 | 717 ft | 125 kts | 300° |
| 2026-05-07 19:44 | 37.60178 | -122.32937 | 544 ft | 125 kts | 300° |
| 2026-05-07 19:44 | 37.60587 | -122.33903 | 379 ft | 125 kts | 299° |
| 2026-05-07 19:45 | 37.61000 | -122.34883 | 210 ft | 125 kts | 300° |
| 2026-05-07 19:45 | 37.61411 | -122.35854 | 49 ft | 125 kts | 300° |
| 2026-05-07 19:45 | 37.61802 | -122.36785 | 18 ft | 108 kts | 298° |
| 2026-05-07 19:45 | 37.62056 | -122.37386 | 23 ft | 52 kts | 297° |
| 2026-05-07 19:46 | 37.62176 | -122.37690 | 27 ft | 23 kts | 289° |
| 2026-05-07 19:46 | 37.62204 | -122.37868 | 29 ft | 20 kts | 278° |
| 2026-05-07 19:46 | 37.62223 | -122.38040 | 31 ft | 19 kts | 276° |
| 2026-05-07 19:46 | 37.62230 | -122.38210 | 32 ft | 18 kts | 266° |
| 2026-05-07 19:47 | 37.62142 | -122.38316 | 33 ft | 16 kts | 198° |
| 2026-05-07 19:47 | 37.62048 | -122.38347 | 34 ft | 12 kts | 181° |
| 2026-05-07 19:47 | 37.61993 | -122.38267 | 34 ft | 13 kts | 117° |
| 2026-05-07 19:47 | 37.61958 | -122.38248 | 34 ft | 6 kts | 215° |
| 2026-05-07 19:48 | 37.61907 | -122.38286 | 34 ft | 10 kts | 209° |
| 2026-05-07 19:48 | 37.61877 | -122.38312 | 34 ft | 1 kts | 248° |
| 2026-05-07 19:48 | 37.61881 | -122.38335 | 34 ft | 3 kts | 296° |
| 2026-05-07 19:48 | 37.61893 | -122.38359 | 35 ft | 2 kts | 299° |
| 2026-05-07 19:49 | 37.61897 | -122.38370 | 35 ft | 0 kts | 298° |
| 2026-05-07 19:49 | 37.61898 | -122.38371 | 35 ft | 0 kts | 298° |